Lesley Pg — MXUG5 — position and weather

sailwx.info

Track history (hours):
 
Tides and Currents Weather Stations Pressure Air Temp Water Temp Dewpoint Dewpoint Depression Visibility Wind Speed Wind Dir Waves Ship Positions

Lesley Pg

Last reported at 2015-May-03 22:24 UTC. Time now 2015-May-07 09:38 UTC.
Position N 13°58' W 061°05'.

Length 102 m; draft 5.1 m.

Type: Tanker. MMSI: 234910000.

Date/timePositionNaut miles runAvg speedWind from/ knotsBaromVisibWave heightAir tempDewpointWater temp
2015-May-03 22:24N 13°58' W 061°05'5 0.3
2015-May-03 07:33N 14°02' W 061°04'9 8.8
2015-May-03 06:33N 14°10' W 061°09'9 8.7
2015-May-03 05:33N 14°17' W 061°14'9 8.9
2015-May-03 04:33N 14°25' W 061°19'8 8.3
2015-May-03 03:33N 14°32' W 061°22'8 8.5
2015-May-03 02:33N 14°41' W 061°24'9 8.5
2015-May-03 01:33N 14°49' W 061°25'63 8.6
2015-May-02 18:18N 15°49' W 061°45'4110.4
2015-May-02 14:21N 16°23' W 062°08'1910.2
2015-May-02 12:29N 16°39' W 062°19'78 9.7
2015-May-02 04:29N 17°44' W 063°04'18 3.6
2015-May-01 23:33N 18°01' W 063°05'0 0.0
2015-May-01 22:22N 18°01' W 063°05'0 0.0
2015-May-01 21:21N 18°01' W 063°05'0 0.0
2015-May-01 20:33N 18°01' W 063°05'0 0.0
2015-May-01 19:24N 18°01' W 063°05'0 0.0
2015-May-01 18:27N 18°01' W 063°05'0 0.0
2015-May-01 17:27N 18°01' W 063°05'5 4.9
2015-May-01 16:29N 17°57' W 063°06'1111.0
2015-May-01 15:29N 17°46' W 063°09'7 1.1
2015-May-01 09:23N 17°39' W 063°11'910.2
2015-May-01 08:32N 17°48' W 063°09'5 4.9
2015-May-01 07:30N 17°53' W 063°09'0 0.3
2015-May-01 06:20N 17°53' W 063°09'0 0.3
2015-May-01 05:33N 17°53' W 063°09'0 0.2
2015-May-01 04:29N 17°52' W 063°09'0 0.2
2015-May-01 03:28N 17°52' W 063°10'0 0.4
2015-May-01 02:28N 17°52' W 063°10'0 0.5
2015-May-01 01:28N 17°52' W 063°10'1 0.6
2015-May-01 00:34N 17°52' W 063°11'7 6.8
2015-Apr-30 23:33N 17°59' W 063°11'9 9.1
2015-Apr-30 22:32N 18°07' W 063°08'0 0.0
2015-Apr-30 09:33N 18°07' W 063°08'11 9.7
2015-Apr-30 08:25N 17°56' W 063°09'910.5
2015-Apr-30 07:32N 17°47' W 063°08'7610.2
2015-Apr-30 00:05N 16°44' W 062°23'1010.3
2015-Apr-29 23:07N 16°36' W 062°17'11610.7
2015-Apr-29 12:21N 14°52' W 061°25'910.9
2015-Apr-29 11:33N 14°43' W 061°24'1111.1
2015-Apr-29 10:33N 14°32' W 061°22'1211.9
2015-Apr-29 09:33N 14°22' W 061°16'1111.3
2015-Apr-29 08:33N 14°12' W 061°10'1110.7
2015-Apr-29 07:33N 14°03' W 061°04'5 0.3
2015-Apr-28 16:22N 13°59' W 061°01'4 5.5
2015-Apr-28 15:33N 14°02' W 061°04'1 0.9
2015-Apr-28 14:31N 14°01' W 061°04'1 0.7
2015-Apr-28 13:23N 14°01' W 061°03'1 0.7
2015-Apr-28 12:33N 14°00' W 061°03'  
2015-Apr-24 03:33N 14°04' W 061°13'10 9.7
2015-Apr-24 02:33N 14°13' W 061°16'9 9.1
2015-Apr-24 01:33N 14°22' W 061°18'9 9.3
2015-Apr-24 00:33N 14°30' W 061°21'9 8.9
2015-Apr-23 23:33N 14°39' W 061°24'9 9.0
2015-Apr-23 22:33N 14°48' W 061°25'  
Track history (hours):
 
Tides and Currents Weather Stations Pressure Air Temp Water Temp Dewpoint Dewpoint Depression Visibility Wind Speed Wind Dir Waves Ship Positions

Lesley Pg

Last reported at 2015-May-03 22:24 UTC. Time now 2015-May-07 09:38 UTC.
Position N 13°58' W 061°05'.

Length 102 m; draft 5.1 m.

Type: Tanker. MMSI: 234910000.

Date/timePositionNaut miles runAvg speedWind from/ knotsBaromVisibWave heightAir tempDewpointWater temp
2015-May-03 22:24N 13°58' W 061°05'5 0.3
2015-May-03 07:33N 14°02' W 061°04'9 8.8
2015-May-03 06:33N 14°10' W 061°09'9 8.7
2015-May-03 05:33N 14°17' W 061°14'9 8.9
2015-May-03 04:33N 14°25' W 061°19'8 8.3
2015-May-03 03:33N 14°32' W 061°22'8 8.5
2015-May-03 02:33N 14°41' W 061°24'9 8.5
2015-May-03 01:33N 14°49' W 061°25'63 8.6
2015-May-02 18:18N 15°49' W 061°45'4110.4
2015-May-02 14:21N 16°23' W 062°08'1910.2
2015-May-02 12:29N 16°39' W 062°19'78 9.7
2015-May-02 04:29N 17°44' W 063°04'18 3.6
2015-May-01 23:33N 18°01' W 063°05'0 0.0
2015-May-01 22:22N 18°01' W 063°05'0 0.0
2015-May-01 21:21N 18°01' W 063°05'0 0.0
2015-May-01 20:33N 18°01' W 063°05'0 0.0
2015-May-01 19:24N 18°01' W 063°05'0 0.0
2015-May-01 18:27N 18°01' W 063°05'0 0.0
2015-May-01 17:27N 18°01' W 063°05'5 4.9
2015-May-01 16:29N 17°57' W 063°06'1111.0
2015-May-01 15:29N 17°46' W 063°09'7 1.1
2015-May-01 09:23N 17°39' W 063°11'910.2
2015-May-01 08:32N 17°48' W 063°09'5 4.9
2015-May-01 07:30N 17°53' W 063°09'0 0.3
2015-May-01 06:20N 17°53' W 063°09'0 0.3
2015-May-01 05:33N 17°53' W 063°09'0 0.2
2015-May-01 04:29N 17°52' W 063°09'0 0.2
2015-May-01 03:28N 17°52' W 063°10'0 0.4
2015-May-01 02:28N 17°52' W 063°10'0 0.5
2015-May-01 01:28N 17°52' W 063°10'1 0.6
2015-May-01 00:34N 17°52' W 063°11'7 6.8
2015-Apr-30 23:33N 17°59' W 063°11'9 9.1
2015-Apr-30 22:32N 18°07' W 063°08'0 0.0
2015-Apr-30 09:33N 18°07' W 063°08'11 9.7
2015-Apr-30 08:25N 17°56' W 063°09'910.5
2015-Apr-30 07:32N 17°47' W 063°08'7610.2
2015-Apr-30 00:05N 16°44' W 062°23'1010.3
2015-Apr-29 23:07N 16°36' W 062°17'11610.7
2015-Apr-29 12:21N 14°52' W 061°25'910.9
2015-Apr-29 11:33N 14°43' W 061°24'1111.1
2015-Apr-29 10:33N 14°32' W 061°22'1211.9
2015-Apr-29 09:33N 14°22' W 061°16'1111.3
2015-Apr-29 08:33N 14°12' W 061°10'1110.7
2015-Apr-29 07:33N 14°03' W 061°04'5 0.3
2015-Apr-28 16:22N 13°59' W 061°01'4 5.5
2015-Apr-28 15:33N 14°02' W 061°04'1 0.9
2015-Apr-28 14:31N 14°01' W 061°04'1 0.7
2015-Apr-28 13:23N 14°01' W 061°03'1 0.7
2015-Apr-28 12:33N 14°00' W 061°03'  
2015-Apr-24 03:33N 14°04' W 061°13'10 9.7
2015-Apr-24 02:33N 14°13' W 061°16'9 9.1
2015-Apr-24 01:33N 14°22' W 061°18'9 9.3
2015-Apr-24 00:33N 14°30' W 061°21'9 8.9
2015-Apr-23 23:33N 14°39' W 061°24'9 9.0
2015-Apr-23 22:33N 14°48' W 061°25'  

Dump ship's entire track history